Meteo Giornale » Osservazioni meteo Italia » Milano-Malpensa

ore: 15:50 - Osservazioni Meteo Milano-Malpensa
Lat. 45° 37' N Lon. 8° 44' E Alt. 234 metri s.l.m.

sereno Europe/Rome

29 °C

Sereno

Temp. 24 Ore

17 °C

29 °C

Sud/Sud-Ovest

9.3 Km/h

Dew point 12 °C

Umidità 35 %

Visibilità  10 Km

Il sole sorge alle ore 05:39

Il sole tramonta alle ore 21:05

Data e Ora Cielo e Fenomeni T °C DP °C Um. % Pres. hPa Vis. km Vento km/h
Oggi h: 15:50 sereno Sereno 29 12 35 1020 10 S/SO 9.3
Oggi h: 15:20 sereno Sereno 28 12 37 1020 10 O/SO 11.1
Oggi h: 14:50 sereno Sereno 29 12 35 1021 10 N 9.3
Oggi h: 14:20 sereno Sereno 28 12 37 1021 10 SO 11.1
Oggi h: 13:50 sereno Sereno 28 13 39 1021 10 O/SO 11.1
Oggi h: 13:20 sereno Sereno 27 12 39 1022 10 SO 11.1
Oggi h: 12:50 sereno Sereno 27 11 36 1022 10 N 7.4
Oggi h: 12:20 sereno Sereno 27 12 39 1022 10 O/SO 11.1
Oggi h: 11:50 sereno Sereno 26 12 41 1022 10 O/SO 9.3
Oggi h: 11:20 sereno Sereno 26 14 47 1022 10 N 5.5
Oggi h: 10:50 sereno Sereno 26 11 39 1022 10 N 5.5
Oggi h: 10:20 sereno Sereno 25 13 47 1022 10 N 3.7
Oggi h: 09:50 sereno Sereno 25 13 47 1023 10 N 3.7
Oggi h: 09:20 sereno Sereno 24 13 50 1023 10 N 3.7
Oggi h: 08:50 nuvoloso Nuvoloso 23 13 53 1023 10 N 1.8
Oggi h: 08:20 nuvoloso Nuvoloso 23 13 53 1023 10 N 3.7
Oggi h: 07:50 sereno Sereno 21 14 64 1023 10 N 7.4
Oggi h: 07:20 sereno Sereno 20 14 68 1023 10 N 7.4
Oggi h: 06:50 sereno Sereno 19 14 72 1022 10 N 7.4
Oggi h: 06:20 sereno Sereno 19 14 72 1022 10 N 5.5
Oggi h: 05:50 sereno Sereno 19 14 72 1022 10 N 9.3
Oggi h: 05:20 sereno Sereno 19 14 72 1022 10 N/NE 7.4
Oggi h: 04:50 sereno Sereno 19 13 68 1022 10 N 9.3
Oggi h: 04:20 sereno Sereno 17 13 77 1022 10 N 9.3
Oggi h: 03:50 sereno Sereno 19 12 63 1022 10 N 5.5
Oggi h: 03:20 sereno Sereno 19 13 68 1022 10 N 3.7
Oggi h: 02:50 sereno Sereno 17 13 77 1022 10 N 5.5
Oggi h: 02:20 sereno Sereno 18 13 72 1022 10 N 7.4
Oggi h: 01:50 sereno Sereno 18 14 77 1022 10 N 7.4
Oggi h: 01:20 sereno Sereno 19 14 72 1022 10 N 9.3
Oggi h: 00:50 sereno Sereno 19 14 72 1022 10 N 9.3
Ieri h: 23:50 sereno Sereno 19 13 68 1021 10 N 5.5
Ieri h: 23:20 sereno Sereno 18 14 77 1021 10 N 5.5
Ieri h: 22:50 sereno Sereno 20 14 68 1021 10 N/NE 7.4
Ieri h: 22:20 sereno Sereno 21 14 64 1020 10 N 3.7
Ieri h: 21:50 sereno Sereno 21 14 64 1020 10 N 3.7
Ieri h: 21:20 sereno Sereno 23 14 56 1020 10 N 3.7
Ieri h: 20:50 sereno Sereno 26 12 41 1019 10 O/SO 7.4
Ieri h: 20:20 sereno Sereno 26 12 41 1019 10 O/SO 9.3
Ieri h: 19:50 sereno Sereno 26 11 39 1019 10 O/SO 7.4
Ieri h: 19:20 sereno Sereno 27 12 39 1019 10 S 7.4
Ieri h: 18:50 sereno Sereno 27 11 36 1019 10 S/SO 7.4
Ieri h: 18:20 sereno Sereno 27 12 39 1019 10 O/SO 9.3
Ieri h: 17:50 sereno Sereno 27 11 36 1019 10 SO 9.3
Ieri h: 17:20 sereno Sereno 27 12 39 1019 10 SO 7.4
Ieri h: 16:50 sereno Sereno 27 11 36 1019 10 O 11.1